Mijn Webcam Meer informatie Mijn Webcam


webcam facing north-east Meer informatie webcam facing north-east


Regen radar Meer informatie rain snow radar


Bezoek onze andere website:

Template documentation
and downloads

And another site


CBI



METAR rapporten vliegvelden

   
EHGG - Groningen/Eelde
Gewijzigd: 23-07-2017 04:25
Lichte (mot)regen, Grotendeels bewolkt  
Lichte (mot)regen, Grotendeels bewolkt  
   Wind: WZW 1,5 m/s
Wind: WZW 1,5 m/s
Temperatuur: 16°C
Dauwpunt: 16°C
Vochtigheid: 100%
Barometer: 1009 hPa
Bewolking: Grotendeels bewolkt
Zicht: 4 km
Bewolking: Licht bewolkt 457,2 m,
Gedeeltelijk bewolkt 731,5 m,
Grotendeels bewolkt 1127,8 m
EHGG 230225Z AUTO 25003KT 220V300 3800 -DZ FEW015CB SCT024 BKN037 16/16 Q1009 REDZ
EHMA - Schiermonnikoog
Gewijzigd: 23-07-2017 04:25
Licht bewolkt  
Licht bewolkt  
   Wind: ZZW 6,7 m/s
Wind: ZZW 6,7 m/s
Temperatuur: 18°C
Dauwpunt: 16°C
Vochtigheid: 88%
Barometer: 1010 hPa
Bewolking: Licht bewolkt
Zicht: More then 10 km
Bewolking: Licht bewolkt 1280,2 m
EHMA 230225Z AUTO 20013KT 9999 FEW042 18/16 Q1010
EHMG - Terschelling
Gewijzigd: 23-07-2017 04:25
Licht bewolkt  
Licht bewolkt  
   Wind: ZO 2,1 m/s
Wind: ZO 2,1 m/s
Temperatuur: 17°C
Dauwpunt: 15°C
Vochtigheid: 88%
Barometer: 1009 hPa
Bewolking: Licht bewolkt
Zicht: More then 10 km
Bewolking: Licht bewolkt 457,2 m
EHMG 230225Z AUTO 14004KT 9999 FEW015 17/15 Q1009
EHVL - Vlieland
Gewijzigd: 23-07-2017 04:25
Gedeeltelijk bewolkt  
Gedeeltelijk bewolkt  
   Wind: Westen 3,6 m/s
Wind: Westen 3,6 m/s
Temperatuur: 16°C
Dauwpunt: 13°C
Vochtigheid: 83%
Barometer: 1009 hPa
Bewolking: Gedeeltelijk bewolkt
Zicht: More then 10 km
Bewolking: Gedeeltelijk bewolkt 1524 m
EHVL 230225Z AUTO 28007KT 9999 SCT050 16/13 Q1009 BLU
ETWM - Meppen, Germany
Gewijzigd: 23-07-2017 04:20
  
  
   Wind: varieert 1 m/s
Wind: varieert 1 m/s
Temperatuur: 16°C
Dauwpunt: 15°C
Vochtigheid: 94%
Barometer: 1010 hPa
Zicht: 3 km
ETWM 230220Z AUTO VRB02KT 3400 // ////// 16/15 Q1010 ///
 

Script ontwikkeld door  Saratoga-weather.org Aangepast voor de template door  Weerstation Leuven

U vindt ons ook hier:

Het Weer Aktueel

UK Metoffice

European Weather Network

WeatherCloud

Weather Underground

Benelux Weer Netwerk

AWEKAS

WeatherlinkIP

HAMweather, WeatherForYou, PWS Weather

Apparatuur in gebruik:

Weerstation
Davis VP2 Plus

Weerprogramma
Cumulus

Weercomputer
ASUS Eee Box B202

Webleverancier
Antagonist

Davis VP2 Plus

Cumulus

ASUS Eee Box B202

Antagonist